Terminal Aerodrome Forecast
Issued by NWS Cleveland, OH

Home | Current Version | Previous Version | Graphics & Text | Print | Product List | Glossary On
Versions: 1 2 3 4 5 6 7 8 9 10 11 12 13 14 15 16 17
000
FTUS41 KCLE 201000 AAA
TAFTOL
TAF AMD
KTOL 201043Z 2011/2106 00000KT 1SM BR BKN004
      TEMPO 2011/2013 1/4SM FG OVC002
     FM201300 VRB03KT 2SM BR BKN030
     FM201400 18005KT P6SM SCT050
     FM202100 VRB04KT P6SM SCT250=

USA.gov is the U.S. government's official web portal to all federal, state and local government web resources and services.